Pagina principală
METAR-TAF:

METAR-TAF

Aeroporturi :

Biak, Indonezia

Latitudine: 01-11S, longitudine: 136-07E, elevație: 11 m

METAR: lipsă

Ora: 01:44 (18:44 UTC)

Prognoză

Raportul a fost făcut în urmă cu 1 oră și 44 de minute, la 17:00 UTC
Prognoză valabilă de la 05 ora 18 UTC la 07 ora 00 UTC
Vânt kt de la Nord
Vizibilitate de 10 km sau mai mult
Nori împrăștiați la o înălțime de 1800 picior
Devenind
de la 05 ora 22 UTC la 06 ora 00 UTC
Vânt 8 kt de la Est

TAF: WABB 051700Z 0518/0700 00000KT 9999 SCT018 BECMG 0522/0600 09008KT

Observații și prognoze meteo pentru peste 4.000 de aeroporturi (rapoarte METAR și TAF).

Stațiile disponibile sunt reprezentate pe hartă prin puncte galbene și roșii.

Țineți indicatorul mouse-ului pe punctul dorit pentru a vedea denumirea stației.

Apoi, faceți clic pentru a vedea observațiile și prognozele meteorologice.

Pentru a schimba harta: Pentru mărire, faceți clic pe butoanele verzi cu cruce neagră; pentru micșorare, pe butonul verde cu o liniuță; pentru hărți învecinate, pe săgețile verzi.


METAR-TAF: